Time;durP1;ratioP1;P1;durP2;ratioP2;P2;SDS_P1;SDS_P2;PMS_P1;PMS_P2;Temp;Humidity;BMP_temperature;BMP_pressure;BME280_temperature;BME280_humidity;BME280_pressure;Samples;Min_cycle;Max_cycle;Signal;HPM_P1;HPM_P2
2023/07/15 00:04:53;;;;;;;5.10;1.80;;;23.90;99.90;;;;;;1952362;72;22628;-80
2023/07/15 00:07:44;;;;;;;3.50;2.17;;;23.90;99.90;;;;;;1917051;75;21070;-80
2023/07/15 00:10:37;;;;;;;3.42;2.05;;;24.00;99.90;;;;;;1923830;73;21119;-80
2023/07/15 00:13:28;;;;;;;5.42;3.20;;;24.00;99.90;;;;;;1920758;73;21078;-80
2023/07/15 00:16:19;;;;;;;4.92;3.10;;;24.00;99.90;;;;;;1917279;75;21063;-80
2023/07/15 00:19:11;;;;;;;5.25;3.20;;;23.90;99.90;;;;;;1917061;75;21381;-80
2023/07/15 00:27:26;;;;;;;4.58;2.10;;;23.90;99.90;;;;;;1951245;72;22614;-79
2023/07/15 00:30:19;;;;;;;3.95;2.17;;;23.80;99.90;;;;;;1902837;75;21549;-80
2023/07/15 00:33:15;;;;;;;5.08;3.10;;;23.70;99.90;;;;;;1902894;75;21043;-80
2023/07/15 00:36:06;;;;;;;6.90;3.55;;;23.60;99.90;;;;;;1915456;75;21090;-80
2023/07/15 00:38:57;;;;;;;6.05;2.52;;;23.60;99.90;;;;;;1898848;75;21149;-80
2023/07/15 00:41:48;;;;;;;4.92;2.70;;;23.60;99.90;;;;;;1909710;75;21079;-80
2023/07/15 00:44:37;;;;;;;4.97;2.83;;;23.50;99.90;;;;;;1879750;76;21134;-80
2023/07/15 00:50:09;;;;;;;2.80;2.27;;;23.50;99.90;;;;;;1934155;72;22862;-79
2023/07/15 00:53:02;;;;;;;3.22;2.17;;;23.50;99.90;;;;;;1930269;73;21156;-79
2023/07/15 00:55:53;;;;;;;3.83;2.27;;;23.40;99.90;;;;;;1925744;73;21098;-79
2023/07/15 00:58:45;;;;;;;2.60;1.90;;;23.40;99.90;;;;;;1927218;73;21088;-80
2023/07/15 01:01:36;;;;;;;7.62;3.27;;;23.40;99.90;;;;;;1919199;73;21136;-80
2023/07/15 01:04:28;;;;;;;6.03;4.20;;;23.40;99.90;;;;;;1943056;73;21083;-80
2023/07/15 01:10:00;;;;;;;5.20;2.55;;;23.20;99.90;;;;;;1936029;72;22298;-80
2023/07/15 01:12:51;;;;;;;3.22;2.12;;;23.10;99.90;;;;;;1888183;74;21189;-80
2023/07/15 01:15:43;;;;;;;4.60;2.55;;;23.10;99.90;;;;;;1897665;75;21223;-80
2023/07/15 01:18:35;;;;;;;3.60;2.50;;;23.10;99.90;;;;;;1902253;75;21485;-80
2023/07/15 01:21:29;;;;;;;3.27;2.15;;;23.20;99.90;;;;;;1916998;75;21122;-80
2023/07/15 01:24:22;;;;;;;3.65;2.10;;;23.20;99.90;;;;;;1913776;75;21066;-80
2023/07/15 01:27:14;;;;;;;2.60;2.25;;;23.20;99.90;;;;;;1900262;75;21132;-80
2023/07/15 01:30:09;;;;;;;3.33;2.20;;;23.20;99.90;;;;;;1887691;75;21150;-80
2023/07/15 01:33:01;;;;;;;3.67;2.05;;;23.10;99.90;;;;;;1905230;74;21127;-80
2023/07/15 01:35:52;;;;;;;2.70;2.05;;;23.10;99.90;;;;;;1909244;75;21189;-79
2023/07/15 01:41:23;;;;;;;4.08;2.22;;;22.90;99.90;;;;;;1945478;72;22146;-80
2023/07/15 01:46:53;;;;;;;4.25;2.25;;;22.70;99.90;;;;;;1936512;72;22279;-80
2023/07/15 01:49:45;;;;;;;4.75;2.05;;;22.60;99.90;;;;;;1909236;75;21175;-80
2023/07/15 01:55:17;;;;;;;3.33;1.95;;;22.70;99.90;;;;;;1935470;72;22830;-80
2023/07/15 01:58:08;;;;;;;4.08;2.00;;;22.80;99.90;;;;;;1901640;75;21145;-80
2023/07/15 02:00:59;;;;;;;5.60;2.10;;;22.70;99.90;;;;;;1893980;75;21164;-80
2023/07/15 02:03:50;;;;;;;3.52;1.85;;;22.60;99.90;;;;;;1910185;75;21043;-80
2023/07/15 02:06:42;;;;;;;2.80;2.15;;;22.70;99.90;;;;;;1899754;75;21176;-79
2023/07/15 02:09:35;;;;;;;3.12;2.40;;;22.70;99.90;;;;;;1900985;75;21090;-80
2023/07/15 02:12:26;;;;;;;5.30;2.40;;;22.70;99.90;;;;;;1901581;75;21058;-80
2023/07/15 02:15:17;;;;;;;4.25;2.27;;;22.70;99.90;;;;;;1896046;75;22177;-80
2023/07/15 02:20:49;;;;;;;4.55;2.77;;;22.80;99.90;;;;;;1933770;72;22201;-80
2023/07/15 02:23:41;;;;;;;4.25;2.60;;;22.80;99.90;;;;;;1896475;75;21125;-80
2023/07/15 02:26:34;;;;;;;3.60;1.90;;;22.80;99.90;;;;;;1892204;75;21095;-80
2023/07/15 02:29:25;;;;;;;4.60;2.70;;;22.80;99.90;;;;;;1906614;74;21048;-80
2023/07/15 02:40:15;;;;;;;4.53;2.27;;;22.60;99.90;;;;;;1931963;72;22142;-80
2023/07/15 02:43:07;;;;;;;4.72;2.33;;;22.50;99.90;;;;;;1896746;75;21134;-79
2023/07/15 02:45:58;;;;;;;3.95;2.17;;;22.40;99.90;;;;;;1905703;75;21151;-80
2023/07/15 02:48:50;;;;;;;3.70;2.20;;;22.30;99.90;;;;;;1892018;75;21559;-80
2023/07/15 02:51:41;;;;;;;3.45;2.12;;;22.10;99.90;;;;;;1888163;75;21075;-80
2023/07/15 02:57:12;;;;;;;4.25;2.10;;;22.10;99.90;;;;;;1940425;72;22166;-80
2023/07/15 03:00:10;;;;;;;4.10;2.37;;;22.00;99.90;;;;;;1877099;75;21107;-79
2023/07/15 03:05:35;;;;;;;3.52;2.47;;;22.10;99.90;;;;;;1942692;72;22183;-80
2023/07/15 03:08:27;;;;;;;5.10;2.30;;;22.20;99.90;;;;;;1902078;75;21152;-81
2023/07/15 03:11:18;;;;;;;2.77;2.58;;;22.30;99.90;;;;;;1899234;74;21171;-81
2023/07/15 03:14:09;;;;;;;3.27;2.35;;;22.30;99.90;;;;;;1889891;75;21103;-81
2023/07/15 03:17:02;;;;;;;3.60;2.65;;;22.30;99.90;;;;;;1897735;75;21114;-80
2023/07/15 03:19:55;;;;;;;2.40;2.20;;;22.30;99.90;;;;;;1908213;75;21116;-80
2023/07/15 03:22:46;;;;;;;4.30;2.30;;;22.40;99.90;;;;;;1896249;75;21154;-80
2023/07/15 03:25:38;;;;;;;2.50;2.17;;;22.50;99.90;;;;;;1901004;75;21135;-81
2023/07/15 03:31:07;;;;;;;6.10;2.25;;;22.40;99.90;;;;;;1951474;72;22296;-80
2023/07/15 03:33:58;;;;;;;3.17;2.10;;;22.40;99.90;;;;;;1922590;73;21102;-81
2023/07/15 03:39:30;;;;;;;3.60;2.20;;;22.30;99.90;;;;;;1921418;72;22231;-80
2023/07/15 03:42:21;;;;;;;5.83;2.45;;;22.20;99.90;;;;;;1897426;75;21041;-80
2023/07/15 03:45:12;;;;;;;4.25;2.42;;;22.00;99.90;;;;;;1897448;73;21101;-80
2023/07/15 03:48:05;;;;;;;4.37;2.33;;;21.90;99.90;;;;;;1893590;75;21100;-79
2023/07/15 03:50:56;;;;;;;4.25;2.47;;;21.80;99.90;;;;;;1892509;75;21055;-79
2023/07/15 03:53:47;;;;;;;3.02;2.47;;;21.80;99.90;;;;;;1891781;75;21150;-81
2023/07/15 03:56:40;;;;;;;3.55;2.60;;;21.70;99.90;;;;;;1885018;75;21150;-80
2023/07/15 04:04:58;;;;;;;4.65;2.20;;;21.60;99.90;;;;;;1951598;72;22178;-80
2023/07/15 04:07:49;;;;;;;2.47;2.10;;;21.60;99.90;;;;;;1921201;73;21142;-80
2023/07/15 04:10:41;;;;;;;3.87;2.17;;;21.60;99.90;;;;;;1917351;73;21151;-80
2023/07/15 04:13:32;;;;;;;4.95;2.20;;;21.60;99.90;;;;;;1939204;73;21087;-80
2023/07/15 04:16:23;;;;;;;4.10;2.22;;;21.60;99.90;;;;;;1939680;73;21175;-80
2023/07/15 04:19:15;;;;;;;4.33;2.47;;;21.60;99.90;;;;;;1917201;75;21157;-80
2023/07/15 04:24:45;;;;;;;4.53;2.30;;;21.70;99.90;;;;;;1916153;72;22160;-80
2023/07/15 04:27:36;;;;;;;3.60;2.30;;;21.70;99.90;;;;;;1904340;75;21073;-80
2023/07/15 04:30:29;;;;;;;5.67;2.40;;;21.70;99.90;;;;;;1897229;74;21129;-80
2023/07/15 04:33:20;;;;;;;4.22;2.22;;;21.70;99.90;;;;;;1915184;75;21093;-81
2023/07/15 04:36:12;;;;;;;5.47;2.37;;;21.70;99.90;;;;;;1914584;73;21054;-81
2023/07/15 04:39:05;;;;;;;5.20;2.50;;;21.70;99.90;;;;;;1894009;75;21144;-80
2023/07/15 04:41:56;;;;;;;4.80;2.58;;;21.70;99.90;;;;;;1887582;75;21143;-80
2023/07/15 04:47:26;;;;;;;2.70;2.17;;;21.80;99.90;;;;;;1935168;72;22138;-80
2023/07/15 04:50:17;;;;;;;3.92;2.30;;;21.80;99.90;;;;;;1897447;74;21105;-80
2023/07/15 04:55:48;;;;;;;3.33;2.42;;;21.90;99.90;;;;;;1930338;72;22223;-80
2023/07/15 04:58:39;;;;;;;3.77;2.10;;;22.00;99.90;;;;;;1905153;75;21205;-80
2023/07/15 05:01:31;;;;;;;4.80;2.40;;;22.10;99.90;;;;;;1849021;76;21066;-80
2023/07/15 05:04:22;;;;;;;4.62;2.42;;;22.20;99.90;;;;;;1890000;75;21189;-80
2023/07/15 05:07:13;;;;;;;3.90;2.52;;;22.20;99.90;;;;;;1902476;75;21074;-80
2023/07/15 05:10:05;;;;;;;5.10;2.30;;;22.20;99.90;;;;;;1891207;75;21081;-80
2023/07/15 05:15:38;;;;;;;3.98;2.35;;;22.20;99.90;;;;;;1947977;72;22167;-80
2023/07/15 05:18:29;;;;;;;2.70;2.33;;;22.30;99.90;;;;;;1920188;74;21118;-80
2023/07/15 05:21:20;;;;;;;3.55;2.30;;;22.30;99.90;;;;;;1923531;73;21082;-80
2023/07/15 05:24:11;;;;;;;3.62;2.45;;;22.30;99.90;;;;;;1925773;73;21181;-80
2023/07/15 05:27:02;;;;;;;2.60;2.40;;;22.30;99.90;;;;;;1917142;75;21153;-80
2023/07/15 05:29:53;;;;;;;4.78;2.35;;;22.30;99.90;;;;;;1937442;73;21111;-80
2023/07/15 05:32:44;;;;;;;3.60;2.52;;;22.30;99.90;;;;;;1935095;73;21139;-81
2023/07/15 05:35:36;;;;;;;5.25;2.72;;;22.40;99.90;;;;;;1922613;73;21120;-81
2023/07/15 05:38:27;;;;;;;4.40;2.20;;;22.50;99.90;;;;;;1918395;75;21094;-81
2023/07/15 05:41:19;;;;;;;4.47;2.37;;;22.40;99.90;;;;;;1918567;73;21160;-80
2023/07/15 05:44:10;;;;;;;4.95;2.90;;;22.50;99.90;;;;;;1917105;73;21172;-81
2023/07/15 05:47:01;;;;;;;4.60;2.58;;;22.60;99.90;;;;;;1923077;73;21154;-81
2023/07/15 05:49:53;;;;;;;4.12;2.62;;;22.70;99.90;;;;;;1936608;73;21517;-80
2023/07/15 05:55:23;;;;;;;3.20;2.90;;;22.80;99.90;;;;;;1946105;72;22226;-80
2023/07/15 06:00:54;;;;;;;3.58;2.45;;;23.10;99.90;;;;;;1942344;72;22200;-77
2023/07/15 06:03:45;;;;;;;3.75;2.52;;;23.20;99.90;;;;;;1894916;75;21052;-78
2023/07/15 06:06:36;;;;;;;3.92;2.52;;;23.00;99.90;;;;;;1889226;75;21113;-78
2023/07/15 06:09:28;;;;;;;6.20;2.60;;;22.70;99.90;;;;;;1905528;75;21144;-77
2023/07/15 06:14:58;;;;;;;7.83;2.52;;;22.60;99.90;;;;;;1947401;72;22343;-77
2023/07/15 06:20:27;;;;;;;6.30;2.65;;;22.60;99.90;;;;;;1941329;72;22180;-78
2023/07/15 06:23:18;;;;;;;4.67;2.60;;;22.50;99.90;;;;;;1896561;75;21122;-77
2023/07/15 06:26:10;;;;;;;8.18;2.62;;;22.60;99.90;;;;;;1891160;75;21651;-77
2023/07/15 06:29:02;;;;;;;4.95;2.40;;;22.60;99.90;;;;;;1891386;75;21143;-77
2023/07/15 06:31:53;;;;;;;5.08;2.87;;;22.70;99.90;;;;;;1901500;75;21217;-78
2023/07/15 06:40:05;;;;;;;4.83;2.62;;;22.90;99.90;;;;;;1919435;72;22301;-78
2023/07/15 06:42:57;;;;;;;2.80;2.37;;;22.90;99.90;;;;;;1906106;75;21196;-78
2023/07/15 06:45:48;;;;;;;3.33;2.40;;;23.10;99.90;;;;;;1862282;76;21167;-78
2023/07/15 06:48:39;;;;;;;3.77;2.50;;;23.10;99.90;;;;;;1898252;75;21102;-78
2023/07/15 06:51:30;;;;;;;3.45;2.58;;;23.10;99.90;;;;;;1897656;75;21931;-78
2023/07/15 06:54:23;;;;;;;4.22;2.42;;;23.20;99.90;;;;;;1895707;75;21129;-78
2023/07/15 06:59:53;;;;;;;4.00;2.65;;;23.20;99.90;;;;;;1944087;72;22535;-78
2023/07/15 07:02:45;;;;;;;3.85;2.70;;;23.40;99.90;;;;;;1891912;75;21146;-78
2023/07/15 07:05:36;;;;;;;4.65;2.72;;;23.50;99.90;;;;;;1891926;75;21106;-78
2023/07/15 07:08:27;;;;;;;2.92;2.60;;;23.60;99.90;;;;;;1899468;75;21208;-78
2023/07/15 07:11:18;;;;;;;4.87;2.62;;;23.70;99.90;;;;;;1899380;75;21114;-79
2023/07/15 07:14:10;;;;;;;4.08;2.77;;;23.80;99.90;;;;;;1902818;75;21098;-78
2023/07/15 07:17:01;;;;;;;4.00;2.55;;;24.00;99.90;;;;;;1904830;75;21095;-79
2023/07/15 07:19:52;;;;;;;4.28;2.35;;;24.10;99.90;;;;;;1895077;75;21904;-79
2023/07/15 07:22:43;;;;;;;3.75;2.47;;;24.30;99.90;;;;;;1895420;75;21146;-79
2023/07/15 07:25:34;;;;;;;3.40;2.42;;;24.60;99.90;;;;;;1907386;75;21211;-78
2023/07/15 07:28:38;;;;;;;5.97;2.65;;;24.90;99.90;;;;;;1886961;75;21156;-78
2023/07/15 07:31:30;;;;;;;3.90;2.42;;;25.20;99.90;;;;;;1896235;75;21594;-78
2023/07/15 07:34:21;;;;;;;5.08;2.70;;;25.50;99.90;;;;;;1914265;75;21094;-79
2023/07/15 07:37:12;;;;;;;3.90;2.42;;;25.80;99.90;;;;;;1895542;75;21090;-79
2023/07/15 07:40:04;;;;;;;4.62;2.40;;;26.10;99.90;;;;;;1910905;75;21276;-78
2023/07/15 07:45:35;;;;;;;6.42;2.52;;;26.70;99.90;;;;;;1933431;72;22153;-79
2023/07/15 07:48:27;;;;;;;6.58;2.55;;;26.90;99.90;;;;;;1894829;74;21177;-79
2023/07/15 07:51:18;;;;;;;4.78;2.72;;;27.20;99.90;;;;;;1890133;75;21114;-79
2023/07/15 07:54:09;;;;;;;4.10;2.60;;;27.30;99.90;;;;;;1908540;75;21091;-79
2023/07/15 07:57:00;;;;;;;4.47;2.52;;;27.40;99.90;;;;;;1893722;75;21159;-79
2023/07/15 07:59:51;;;;;;;3.77;2.40;;;27.50;99.90;;;;;;1900394;75;21093;-79
2023/07/15 08:05:21;;;;;;;6.70;2.52;;;27.80;99.90;;;;;;1928500;72;22167;-78
2023/07/15 08:08:13;;;;;;;4.25;2.02;;;28.20;99.90;;;;;;1910070;75;21118;-79
2023/07/15 08:11:04;;;;;;;2.98;2.17;;;28.70;99.90;;;;;;1884840;75;21165;-79
2023/07/15 08:13:56;;;;;;;4.87;1.77;;;29.30;99.90;;;;;;1901380;75;21110;-79
2023/07/15 08:16:47;;;;;;;3.27;2.12;;;29.60;99.90;;;;;;1895047;75;21055;-79
2023/07/15 08:19:39;;;;;;;3.77;2.25;;;29.80;98.00;;;;;;1890768;75;21106;-79
2023/07/15 08:22:30;;;;;;;2.55;1.80;;;30.00;96.80;;;;;;1890462;75;21094;-78
2023/07/15 08:25:21;;;;;;;6.25;2.15;;;30.10;94.20;;;;;;1910003;75;21486;-79
2023/07/15 08:30:51;;;;;;;6.28;2.20;;;30.50;92.10;;;;;;1951405;72;22187;-79
2023/07/15 08:36:23;;;;;;;3.15;2.25;;;30.90;90.90;;;;;;1909719;72;22941;-79
2023/07/15 08:39:14;;;;;;;6.20;2.50;;;31.00;90.00;;;;;;1903465;74;21603;-79
2023/07/15 08:42:06;;;;;;;3.85;1.90;;;31.20;87.30;;;;;;1901756;75;21135;-79
2023/07/15 08:44:57;;;;;;;5.95;2.15;;;31.30;84.50;;;;;;1884716;75;21165;-79
2023/07/15 08:50:31;;;;;;;2.72;2.25;;;31.30;83.10;;;;;;1952302;72;22307;-78
2023/07/15 08:56:02;;;;;;;5.75;2.52;;;31.60;80.60;;;;;;1947095;72;22165;-78
2023/07/15 08:58:54;;;;;;;6.65;3.33;;;31.70;79.70;;;;;;1881569;75;21130;-78
2023/07/15 09:01:46;;;;;;;6.62;2.45;;;31.80;76.70;;;;;;1908132;74;21077;-79
2023/07/15 09:04:37;;;;;;;3.40;2.02;;;31.90;75.60;;;;;;1911217;75;21106;-78
2023/07/15 09:10:10;;;;;;;5.40;1.92;;;32.10;74.90;;;;;;1934082;72;22236;-79
2023/07/15 09:13:02;;;;;;;3.60;2.40;;;32.10;73.70;;;;;;1898228;75;21103;-79
2023/07/15 09:15:57;;;;;;;2.92;1.90;;;32.10;73.90;;;;;;1903945;75;21140;-88
2023/07/15 09:21:52;;;;;;;3.62;1.90;;;32.20;72.40;;;;;;1942958;72;22746;-87
2023/07/15 09:24:44;;;;;;;3.42;2.10;;;32.40;72.10;;;;;;1926538;73;21175;-86
2023/07/15 09:27:35;;;;;;;5.12;2.25;;;32.50;71.70;;;;;;1928645;73;21158;-86
2023/07/15 09:30:27;;;;;;;4.80;2.40;;;32.50;71.80;;;;;;1943100;73;21048;-86
2023/07/15 09:33:33;;;;;;;3.67;2.20;;;32.60;71.40;;;;;;1936282;73;21210;-86
2023/07/15 09:36:31;;;;;;;3.62;2.45;;;32.60;70.80;;;;;;1918454;73;21535;-86
2023/07/15 09:39:24;;;;;;;2.90;2.10;;;32.40;71.40;;;;;;1946478;73;21051;-89
2023/07/15 09:44:59;;;;;;;5.08;2.60;;;32.60;70.80;;;;;;1941254;72;22207;-74
2023/07/15 09:50:34;;;;;;;3.77;2.30;;;32.60;70.50;;;;;;1936275;72;22788;-74
2023/07/15 09:56:11;;;;;;;3.52;2.22;;;32.60;70.50;;;;;;1955675;72;22389;-75
2023/07/15 09:59:07;;;;;;;4.42;2.37;;;32.70;69.50;;;;;;1929072;73;21055;-74
2023/07/15 10:02:01;;;;;;;5.15;2.90;;;32.70;69.90;;;;;;1924162;73;21130;-74
2023/07/15 10:04:55;;;;;;;3.20;2.35;;;32.80;69.90;;;;;;1920413;73;21108;-74
2023/07/15 10:07:47;;;;;;;4.17;2.30;;;32.80;69.90;;;;;;1916649;73;21199;-74
2023/07/15 10:10:39;;;;;;;3.67;1.98;;;32.60;69.50;;;;;;1927541;73;21106;-74
2023/07/15 10:16:12;;;;;;;3.92;2.00;;;32.60;70.10;;;;;;1934404;72;22118;-84
2023/07/15 10:19:03;;;;;;;5.85;2.83;;;32.80;70.20;;;;;;1898962;75;21616;-84
2023/07/15 10:24:37;;;;;;;3.65;2.40;;;32.90;69.80;;;;;;1925923;72;22292;-84
2023/07/15 10:30:22;;;;;;;3.02;2.12;;;33.00;69.40;;;;;;1943118;72;22196;-84
2023/07/15 10:36:00;;;;;;;5.83;2.37;;;33.20;68.60;;;;;;1942656;72;22184;-84
2023/07/15 10:39:02;;;;;;;2.98;2.22;;;33.20;68.00;;;;;;1930171;73;21153;-83
2023/07/15 10:41:54;;;;;;;4.60;2.70;;;33.30;68.30;;;;;;1926985;73;21094;-82
2023/07/15 10:44:48;;;;;;;4.40;2.25;;;33.50;68.10;;;;;;1923422;73;21187;-82
2023/07/15 10:50:26;;;;;;;2.72;2.15;;;33.90;67.50;;;;;;1931529;72;22239;-82
2023/07/15 10:56:09;;;;;;;4.90;2.40;;;34.10;66.40;;;;;;1948225;72;22153;-83
2023/07/15 11:01:39;;;;;;;3.12;2.15;;;34.20;65.80;;;;;;1947410;72;22162;-83
2023/07/15 11:04:32;;;;;;;3.33;2.17;;;34.30;65.20;;;;;;1936947;73;21155;-83
2023/07/15 11:10:02;;;;;;;4.97;2.47;;;34.30;63.60;;;;;;1939904;72;22182;-83
2023/07/15 11:12:54;;;;;;;4.12;2.40;;;34.30;63.70;;;;;;1877650;75;21176;-83
2023/07/15 11:15:46;;;;;;;5.03;2.15;;;34.30;64.20;;;;;;1889076;75;21176;-84
2023/07/15 11:18:38;;;;;;;5.42;2.20;;;34.30;63.20;;;;;;1893989;75;21044;-83
2023/07/15 11:21:29;;;;;;;3.08;2.10;;;34.40;62.40;;;;;;1890086;75;21074;-84
2023/07/15 11:27:04;;;;;;;3.85;2.17;;;34.50;62.20;;;;;;1945923;72;22723;-83
2023/07/15 11:30:02;;;;;;;7.22;2.40;;;34.60;61.70;;;;;;1885275;75;21145;-81
2023/07/15 11:32:54;;;;;;;;;;;34.60;61.00;;;;;;1903151;75;21039;-82
2023/07/15 11:35:46;;;;;;;4.53;2.10;;;34.60;60.10;;;;;;1903080;75;20478;-82
2023/07/15 11:38:39;;;;;;;3.58;2.20;;;34.70;60.60;;;;;;1894074;75;21642;-82
2023/07/15 11:41:30;;;;;;;4.47;2.15;;;34.70;59.50;;;;;;1904290;74;21118;-82
2023/07/15 11:44:24;;;;;;;4.97;2.05;;;34.80;59.60;;;;;;1897503;75;21152;-82
2023/07/15 11:47:16;;;;;;;3.37;2.00;;;34.80;58.90;;;;;;1899167;75;21149;-82
2023/07/15 11:50:10;;;;;;;2.98;1.95;;;34.80;59.10;;;;;;1897094;75;21098;-82
2023/07/15 11:53:04;;;;;;;3.67;1.95;;;34.80;59.50;;;;;;1895540;75;21235;-82
2023/07/15 11:58:53;;;;;;;3.87;1.98;;;35.10;60.00;;;;;;1947195;72;22957;-82
2023/07/15 12:01:41;;;;;;;;;;;35.10;57.90;;;;;;1855610;76;21098;-83
2023/07/15 12:15:33;;;;;;;3.10;1.82;;;35.70;57.10;;;;;;1929487;72;22170;-82
2023/07/15 12:18:25;;;;;;;3.95;2.10;;;35.90;56.10;;;;;;1886799;74;21149;-84
2023/07/15 12:21:16;;;;;;;2.85;2.00;;;35.90;55.50;;;;;;1892812;75;21609;-83
2023/07/15 12:26:47;;;;;;;4.67;2.00;;;35.90;55.50;;;;;;1947194;72;22150;-83
2023/07/15 12:29:39;;;;;;;3.83;1.90;;;36.00;55.10;;;;;;1927052;73;21191;-82
2023/07/15 12:32:30;;;;;;;2.77;2.02;;;36.10;55.10;;;;;;1917816;73;21568;-83
2023/07/15 12:38:12;;;;;;;4.90;1.95;;;36.20;55.60;;;;;;1945762;72;22047;-82
2023/07/15 12:41:05;;;;;;;4.47;2.10;;;36.20;54.60;;;;;;1917550;73;21211;-83
2023/07/15 12:43:58;;;;;;;3.35;2.08;;;36.30;54.60;;;;;;1933535;73;21137;-83
2023/07/15 12:46:50;;;;;;;3.33;2.00;;;36.40;54.60;;;;;;1917518;73;21223;-83
2023/07/15 12:49:41;;;;;;;2.40;2.00;;;36.40;54.00;;;;;;1919378;73;21351;-83
2023/07/15 12:55:12;;;;;;;3.40;1.90;;;36.40;54.10;;;;;;1938723;72;22154;-82
2023/07/15 12:58:04;;;;;;;3.95;1.80;;;36.40;54.40;;;;;;1909380;74;21159;-84
2023/07/15 13:00:56;;;;;;;4.22;1.85;;;36.40;54.00;;;;;;1899519;75;21617;-83
2023/07/15 13:06:27;;;;;;;3.72;1.90;;;36.50;54.10;;;;;;1931698;72;22211;-84
2023/07/15 13:09:18;;;;;;;2.55;2.15;;;36.50;53.00;;;;;;1904662;75;21050;-84
2023/07/15 13:12:10;;;;;;;3.60;1.90;;;36.50;53.50;;;;;;1915415;75;21664;-84
2023/07/15 13:15:01;;;;;;;3.47;1.77;;;36.50;53.60;;;;;;1907704;75;21215;-83
2023/07/15 13:17:53;;;;;;;1.92;1.62;;;36.50;53.40;;;;;;1905555;75;21130;-84
2023/07/15 13:20:45;;;;;;;4.03;1.85;;;36.50;53.40;;;;;;1906291;75;21547;-84
2023/07/15 13:23:36;;;;;;;5.95;2.15;;;36.50;53.50;;;;;;1908121;75;21134;-84
2023/07/15 13:29:10;;;;;;;2.98;1.70;;;36.70;52.80;;;;;;1946126;72;22602;-83
2023/07/15 13:32:01;;;;;;;2.60;2.00;;;36.70;53.30;;;;;;1926515;73;21144;-83
2023/07/15 13:34:53;;;;;;;3.87;2.00;;;36.90;53.20;;;;;;1920379;74;21197;-83
2023/07/15 13:40:25;;;;;;;3.35;2.05;;;36.90;53.00;;;;;;1914783;72;22247;-83
2023/07/15 13:43:17;;;;;;;4.75;1.90;;;36.80;53.10;;;;;;1913627;75;21224;-83
2023/07/15 13:46:08;;;;;;;4.00;2.00;;;37.00;53.50;;;;;;1895031;75;21055;-83
2023/07/15 13:49:00;;;;;;;4.90;2.20;;;37.00;53.10;;;;;;1897132;75;21296;-83
2023/07/15 13:54:30;;;;;;;4.28;2.02;;;37.10;53.00;;;;;;1932560;72;22653;-83
2023/07/15 14:00:09;;;;;;;4.10;2.40;;;37.90;53.00;;;;;;1915854;72;28048;-83
2023/07/15 14:05:44;;;;;;;3.98;2.00;;;38.40;51.60;;;;;;1943857;72;22197;-83
2023/07/15 14:08:37;;;;;;;2.42;2.08;;;38.70;51.10;;;;;;1928148;73;21103;-84
2023/07/15 14:11:29;;;;;;;5.85;2.30;;;38.70;50.90;;;;;;1942736;73;21244;-84
2023/07/15 14:14:20;;;;;;;4.83;2.27;;;38.90;51.10;;;;;;1887984;75;21134;-84
2023/07/15 14:17:11;;;;;;;4.12;2.30;;;39.20;50.20;;;;;;1918218;75;21079;-84
2023/07/15 14:22:44;;;;;;;3.75;2.12;;;40.00;49.20;;;;;;1938290;72;22899;-83
2023/07/15 14:25:37;;;;;;;4.65;2.00;;;40.20;49.20;;;;;;1875222;75;21537;-83
2023/07/15 14:31:07;;;;;;;3.33;2.17;;;39.90;48.20;;;;;;1933573;72;22256;-82
2023/07/15 14:36:39;;;;;;;3.62;2.30;;;40.40;48.30;;;;;;1946342;72;22177;-85
2023/07/15 14:39:30;;;;;;;5.08;2.35;;;40.40;47.70;;;;;;1892667;75;21270;-85
2023/07/15 14:42:22;;;;;;;4.70;2.27;;;40.70;47.20;;;;;;1907985;75;21094;-83
2023/07/15 14:50:34;;;;;;;2.90;2.00;;;41.10;47.20;;;;;;1965666;72;22168;-83
2023/07/15 14:56:04;;;;;;;4.05;2.10;;;41.50;47.10;;;;;;1945465;72;22223;-83
2023/07/15 14:58:55;;;;;;;3.30;1.90;;;41.50;45.80;;;;;;1893958;75;21119;-82
2023/07/15 15:01:46;;;;;;;2.95;1.90;;;41.60;46.40;;;;;;1873224;75;21156;-83
2023/07/15 15:07:17;;;;;;;4.03;2.37;;;41.70;45.30;;;;;;1941047;72;22121;-83
2023/07/15 15:10:10;;;;;;;6.05;2.05;;;42.00;45.40;;;;;;1908283;73;21157;-83
2023/07/15 15:15:41;;;;;;;4.37;2.20;;;42.60;44.40;;;;;;1929229;72;22249;-84
2023/07/15 15:18:32;;;;;;;2.10;1.85;;;42.80;44.30;;;;;;1895251;75;21531;-83
2023/07/15 15:21:24;;;;;;;2.92;1.95;;;42.30;44.60;;;;;;1871240;75;21152;-83
2023/07/15 15:26:54;;;;;;;5.15;2.20;;;41.90;44.30;;;;;;1937338;72;22594;-83
2023/07/15 15:35:07;;;;;;;3.70;2.17;;;42.90;44.20;;;;;;1932169;72;22215;-85
2023/07/15 15:40:45;;;;;;;3.67;2.27;;;43.50;43.70;;;;;;1948434;72;22153;-84
2023/07/15 15:43:36;;;;;;;3.05;2.45;;;43.30;43.80;;;;;;1907439;74;21109;-85
2023/07/15 15:46:27;;;;;;;2.75;2.00;;;43.90;43.40;;;;;;1918621;74;21106;-83
2023/07/15 15:49:21;;;;;;;2.85;2.25;;;43.60;43.20;;;;;;1922078;74;21119;-84
2023/07/15 15:52:14;;;;;;;2.98;2.33;;;43.90;43.40;;;;;;1916747;75;21109;-83
2023/07/15 15:57:48;;;;;;;3.90;2.35;;;43.90;43.30;;;;;;1956808;72;22089;-83
2023/07/15 16:00:43;;;;;;;3.95;2.47;;;43.60;43.60;;;;;;1917019;75;21196;-83
2023/07/15 16:03:34;;;;;;;3.20;2.58;;;43.80;43.60;;;;;;1922938;73;21105;-84
2023/07/15 16:06:25;;;;;;;2.92;2.00;;;43.80;43.40;;;;;;1921025;73;22117;-84
2023/07/15 16:09:17;;;;;;;3.15;2.10;;;44.20;43.20;;;;;;1929599;73;21176;-84
2023/07/15 16:12:09;;;;;;;4.15;2.40;;;43.90;43.50;;;;;;1928533;73;21038;-84
2023/07/15 16:15:00;;;;;;;3.77;2.33;;;44.20;43.60;;;;;;1916798;75;21119;-83
2023/07/15 16:17:51;;;;;;;5.40;2.62;;;44.30;43.80;;;;;;1916803;73;21167;-83
2023/07/15 16:20:42;;;;;;;3.98;2.58;;;44.00;43.60;;;;;;1917016;75;21146;-83
2023/07/15 16:23:33;;;;;;;2.25;2.05;;;43.60;43.90;;;;;;1936372;73;21126;-83
2023/07/15 16:26:25;;;;;;;3.12;2.40;;;43.40;44.50;;;;;;1932550;73;21137;-83
2023/07/15 16:29:17;;;;;;;3.02;2.27;;;43.50;44.20;;;;;;1875446;76;21171;-83
2023/07/15 16:34:52;;;;;;;4.08;2.65;;;43.40;44.60;;;;;;1924000;72;22320;-83
2023/07/15 16:37:42;;;;;;;4.10;2.50;;;43.20;45.00;;;;;;1911296;75;21122;-83
2023/07/15 16:40:34;;;;;;;4.03;2.60;;;43.40;44.40;;;;;;1906222;75;21048;-82
2023/07/15 16:46:03;;;;;;;3.77;2.22;;;43.20;44.70;;;;;;1930082;72;22146;-82
2023/07/15 16:48:55;;;;;;;2.70;2.10;;;42.40;45.70;;;;;;1879529;75;21115;-82
2023/07/15 16:57:08;;;;;;;3.83;2.22;;;42.30;46.10;;;;;;1933914;72;22284;-83
2023/07/15 17:00:02;;;;;;;4.60;2.62;;;42.80;46.10;;;;;;1898441;75;21224;-83
2023/07/15 17:05:33;;;;;;;6.30;2.37;;;43.40;45.40;;;;;;1926518;72;22130;-83
2023/07/15 17:08:25;;;;;;;3.37;2.42;;;42.90;45.90;;;;;;1878442;75;21091;-82
2023/07/15 17:11:16;;;;;;;5.67;2.70;;;42.30;46.60;;;;;;1881470;75;21105;-82
2023/07/15 17:14:13;;;;;;;4.58;2.50;;;41.90;46.90;;;;;;1876703;75;21100;-82
2023/07/15 17:17:05;;;;;;;5.17;2.27;;;41.60;47.30;;;;;;1884564;75;21119;-83
2023/07/15 17:19:57;;;;;;;3.55;2.20;;;41.60;47.30;;;;;;1887071;75;21079;-82
2023/07/15 17:30:51;;;;;;;5.10;2.87;;;39.20;50.30;;;;;;1932687;72;22186;-83
2023/07/15 17:33:45;;;;;;;4.33;2.65;;;38.60;50.90;;;;;;1892621;75;21102;-83
2023/07/15 17:36:37;;;;;;;5.15;2.65;;;38.40;51.30;;;;;;1884081;75;21407;-83
2023/07/15 17:42:09;;;;;;;4.10;2.95;;;37.40;52.30;;;;;;1946378;72;22168;-82
2023/07/15 17:45:02;;;;;;;3.62;2.45;;;37.10;53.30;;;;;;1905510;75;21127;-81
2023/07/15 17:47:54;;;;;;;7.05;2.65;;;36.70;53.80;;;;;;1913710;74;21214;-81
2023/07/15 17:50:46;;;;;;;4.30;2.50;;;36.90;54.00;;;;;;1904122;75;21139;-81
2023/07/15 17:53:38;;;;;;;4.85;2.90;;;37.20;53.60;;;;;;1918596;74;21079;-82
2023/07/15 17:59:10;;;;;;;4.15;3.02;;;36.70;54.20;;;;;;1966318;72;23483;-82
2023/07/15 18:02:02;;;;;;;5.22;3.27;;;36.40;54.50;;;;;;1932398;73;21190;-82
2023/07/15 18:10:12;;;;;;;3.50;2.95;;;36.10;55.10;;;;;;1931413;72;22694;-83
2023/07/15 18:15:44;;;;;;;4.25;3.10;;;37.20;54.00;;;;;;1919310;72;22157;-83
2023/07/15 18:21:13;;;;;;;5.53;2.90;;;37.60;53.30;;;;;;1944345;72;22243;-83
2023/07/15 18:24:07;;;;;;;4.67;2.67;;;37.60;53.30;;;;;;1897248;75;21192;-83
2023/07/15 18:29:44;;;;;;;3.55;2.65;;;36.90;53.90;;;;;;1939496;72;22086;-83
2023/07/15 18:35:15;;;;;;;5.37;2.90;;;35.80;55.70;;;;;;1932986;72;22184;-83
2023/07/15 18:38:07;;;;;;;4.03;3.15;;;35.50;56.20;;;;;;1935288;73;21135;-82
2023/07/15 18:43:36;;;;;;;5.00;3.20;;;35.10;56.50;;;;;;1954064;72;22184;-82
2023/07/15 18:46:27;;;;;;;5.53;2.80;;;34.90;56.80;;;;;;1916914;75;21178;-82
2023/07/15 18:49:20;;;;;;;4.22;3.22;;;34.80;57.00;;;;;;1929110;73;21513;-82
2023/07/15 18:52:11;;;;;;;8.40;3.50;;;34.60;57.30;;;;;;1916294;75;21114;-82
2023/07/15 18:55:03;;;;;;;3.60;2.80;;;34.50;58.30;;;;;;1937770;73;21110;-83
2023/07/15 18:57:54;;;;;;;4.65;2.87;;;34.40;58.70;;;;;;1916958;73;21106;-83
2023/07/15 19:00:46;;;;;;;5.37;3.02;;;34.20;58.00;;;;;;1925166;73;21090;-83
2023/07/15 19:03:37;;;;;;;5.03;3.00;;;34.10;59.30;;;;;;1925080;73;21089;-82
2023/07/15 19:06:28;;;;;;;3.62;2.92;;;33.60;62.10;;;;;;1926466;73;21102;-83